<?xml version="1.0" encoding="UTF-8" standalone="no" ?>
<gpx xmlns="http://www.topografix.com/GPX/1/1" xmlns:xsi="http://www.w3.org/2001/XMLSchema-instance" xsi:schemaLocation="http://www.topografix.com/GPX/1/1 http://www.topografix.com/GPX/1/1/gpx.xsd" version="1.1" creator="VisuGPX - https://www.visugpx.com">
  <metadata>
    <name>Redon_Chateaulin</name>
    <desc><![CDATA[Randonnée cyclotouriste de Redon à Châteaulin par le chemin de halage du canal de Nantes à Brest avec quelques échappées vers Rostrenen, Carhaix et Pleyben.]]></desc>
  </metadata>
  <trk>
    <name><![CDATA[ACTIVE LOG 015]]></name>
    <trkseg>
      <trkpt lat="48.18247" lon="-3.7867">
        <ele>9.7506103515625</ele>
        <time>2012-04-19T11:43:06Z</time>
      </trkpt>
      <trkpt lat="48.18229" lon="-3.78696">
        <ele>52.529174804688</ele>
        <time>2012-04-19T11:45:10Z</time>
      </trkpt>
      <trkpt lat="48.18228" lon="-3.78696">
        <ele>52.048583984375</ele>
        <time>2012-04-19T11:45:29Z</time>
      </trkpt>
      <trkpt lat="48.18228" lon="-3.78706">
        <ele>50.1259765625</ele>
        <time>2012-04-19T11:45:34Z</time>
      </trkpt>
      <trkpt lat="48.18219" lon="-3.78774">
        <ele>45.799926757812</ele>
        <time>2012-04-19T11:45:49Z</time>
      </trkpt>
      <trkpt lat="48.18202" lon="-3.78886">
        <ele>41.954711914062</ele>
        <time>2012-04-19T11:46:10Z</time>
      </trkpt>
      <trkpt lat="48.18182" lon="-3.78965">
        <ele>39.070678710938</ele>
        <time>2012-04-19T11:46:27Z</time>
      </trkpt>
      <trkpt lat="48.18147" lon="-3.79032">
        <ele>38.590087890625</ele>
        <time>2012-04-19T11:46:43Z</time>
      </trkpt>
      <trkpt lat="48.1809" lon="-3.79127">
        <ele>38.590087890625</ele>
        <time>2012-04-19T11:47:07Z</time>
      </trkpt>
      <trkpt lat="48.18035" lon="-3.79194">
        <ele>40.032104492188</ele>
        <time>2012-04-19T11:47:27Z</time>
      </trkpt>
      <trkpt lat="48.17981" lon="-3.79222">
        <ele>40.512817382812</ele>
        <time>2012-04-19T11:47:44Z</time>
      </trkpt>
      <trkpt lat="48.17958" lon="-3.79221">
        <ele>40.512817382812</ele>
        <time>2012-04-19T11:47:50Z</time>
      </trkpt>
      <trkpt lat="48.17876" lon="-3.79234">
        <ele>40.993408203125</ele>
        <time>2012-04-19T11:48:11Z</time>
      </trkpt>
      <trkpt lat="48.17801" lon="-3.79205">
        <ele>40.993408203125</ele>
        <time>2012-04-19T11:48:31Z</time>
      </trkpt>
      <trkpt lat="48.17731" lon="-3.79178">
        <ele>41.954711914062</ele>
        <time>2012-04-19T11:48:50Z</time>
      </trkpt>
      <trkpt lat="48.17662" lon="-3.79154">
        <ele>40.512817382812</ele>
        <time>2012-04-19T11:49:09Z</time>
      </trkpt>
      <trkpt lat="48.1759" lon="-3.79136">
        <ele>39.070678710938</ele>
        <time>2012-04-19T11:49:29Z</time>
      </trkpt>
      <trkpt lat="48.17578" lon="-3.79134">
        <ele>39.55126953125</ele>
        <time>2012-04-19T11:49:32Z</time>
      </trkpt>
      <trkpt lat="48.17484" lon="-3.79119">
        <ele>40.032104492188</ele>
        <time>2012-04-19T11:49:57Z</time>
      </trkpt>
      <trkpt lat="48.17377" lon="-3.79123">
        <ele>39.070678710938</ele>
        <time>2012-04-19T11:50:26Z</time>
      </trkpt>
      <trkpt lat="48.173" lon="-3.79134">
        <ele>37.148071289062</ele>
        <time>2012-04-19T11:50:46Z</time>
      </trkpt>
      <trkpt lat="48.17239" lon="-3.79143">
        <ele>36.66748046875</ele>
        <time>2012-04-19T11:51:02Z</time>
      </trkpt>
      <trkpt lat="48.17154" lon="-3.79139">
        <ele>36.66748046875</ele>
        <time>2012-04-19T11:51:24Z</time>
      </trkpt>
      <trkpt lat="48.1709" lon="-3.79158">
        <ele>35.7060546875</ele>
        <time>2012-04-19T11:51:42Z</time>
      </trkpt>
      <trkpt lat="48.17018" lon="-3.79187">
        <ele>34.744873046875</ele>
        <time>2012-04-19T11:52:03Z</time>
      </trkpt>
      <trkpt lat="48.16973" lon="-3.79216">
        <ele>34.744873046875</ele>
        <time>2012-04-19T11:52:18Z</time>
      </trkpt>
      <trkpt lat="48.16917" lon="-3.79253">
        <ele>34.26416015625</ele>
        <time>2012-04-19T11:52:37Z</time>
      </trkpt>
      <trkpt lat="48.16843" lon="-3.79301">
        <ele>35.225463867188</ele>
        <time>2012-04-19T11:52:59Z</time>
      </trkpt>
      <trkpt lat="48.16832" lon="-3.79308">
        <ele>33.783447265625</ele>
        <time>2012-04-19T11:53:03Z</time>
      </trkpt>
      <trkpt lat="48.16799" lon="-3.79329">
        <ele>32.341552734375</ele>
        <time>2012-04-19T11:53:14Z</time>
      </trkpt>
      <trkpt lat="48.16741" lon="-3.79415">
        <ele>33.783447265625</ele>
        <time>2012-04-19T11:53:35Z</time>
      </trkpt>
      <trkpt lat="48.16693" lon="-3.79515">
        <ele>33.783447265625</ele>
        <time>2012-04-19T11:53:58Z</time>
      </trkpt>
      <trkpt lat="48.16661" lon="-3.79583">
        <ele>33.302856445312</ele>
        <time>2012-04-19T11:54:14Z</time>
      </trkpt>
      <trkpt lat="48.16627" lon="-3.79658">
        <ele>32.341552734375</ele>
        <time>2012-04-19T11:54:31Z</time>
      </trkpt>
      <trkpt lat="48.1659" lon="-3.79739">
        <ele>32.822265625</ele>
        <time>2012-04-19T11:54:49Z</time>
      </trkpt>
      <trkpt lat="48.16566" lon="-3.7981">
        <ele>32.341552734375</ele>
        <time>2012-04-19T11:55:03Z</time>
      </trkpt>
      <trkpt lat="48.16553" lon="-3.79887">
        <ele>32.341552734375</ele>
        <time>2012-04-19T11:55:18Z</time>
      </trkpt>
      <trkpt lat="48.16563" lon="-3.80014">
        <ele>33.302856445312</ele>
        <time>2012-04-19T11:55:40Z</time>
      </trkpt>
      <trkpt lat="48.16579" lon="-3.8013">
        <ele>33.783447265625</ele>
        <time>2012-04-19T11:56:00Z</time>
      </trkpt>
      <trkpt lat="48.16598" lon="-3.80207">
        <ele>32.822265625</ele>
        <time>2012-04-19T11:56:14Z</time>
      </trkpt>
      <trkpt lat="48.16622" lon="-3.80305">
        <ele>32.341552734375</ele>
        <time>2012-04-19T11:56:30Z</time>
      </trkpt>
      <trkpt lat="48.16625" lon="-3.80316">
        <ele>33.302856445312</ele>
        <time>2012-04-19T11:56:34Z</time>
      </trkpt>
      <trkpt lat="48.16625" lon="-3.80316">
        <ele>33.302856445312</ele>
        <time>2012-04-19T11:56:36Z</time>
      </trkpt>
      <trkpt lat="48.16673" lon="-3.80352">
        <ele>32.822265625</ele>
        <time>2012-04-19T11:56:46Z</time>
      </trkpt>
      <trkpt lat="48.16715" lon="-3.80384">
        <ele>32.341552734375</ele>
        <time>2012-04-19T11:56:58Z</time>
      </trkpt>
      <trkpt lat="48.16762" lon="-3.8042">
        <ele>31.860717773438</ele>
        <time>2012-04-19T11:57:11Z</time>
      </trkpt>
      <trkpt lat="48.16815" lon="-3.80459">
        <ele>31.860717773438</ele>
        <time>2012-04-19T11:57:25Z</time>
      </trkpt>
      <trkpt lat="48.16867" lon="-3.80499">
        <ele>31.380126953125</ele>
        <time>2012-04-19T11:57:40Z</time>
      </trkpt>
      <trkpt lat="48.16938" lon="-3.80552">
        <ele>31.860717773438</ele>
        <time>2012-04-19T11:58:00Z</time>
      </trkpt>
      <trkpt lat="48.16998" lon="-3.80598">
        <ele>31.860717773438</ele>
        <time>2012-04-19T11:58:17Z</time>
      </trkpt>
      <trkpt lat="48.1707" lon="-3.80629">
        <ele>31.860717773438</ele>
        <time>2012-04-19T11:58:38Z</time>
      </trkpt>
      <trkpt lat="48.17124" lon="-3.80649">
        <ele>32.341552734375</ele>
        <time>2012-04-19T11:58:53Z</time>
      </trkpt>
      <trkpt lat="48.17205" lon="-3.80678">
        <ele>32.822265625</ele>
        <time>2012-04-19T11:59:14Z</time>
      </trkpt>
      <trkpt lat="48.17278" lon="-3.80704">
        <ele>32.341552734375</ele>
        <time>2012-04-19T11:59:33Z</time>
      </trkpt>
      <trkpt lat="48.17346" lon="-3.80721">
        <ele>30.899536132812</ele>
        <time>2012-04-19T11:59:51Z</time>
      </trkpt>
      <trkpt lat="48.17413" lon="-3.80733">
        <ele>30.899536132812</ele>
        <time>2012-04-19T12:00:08Z</time>
      </trkpt>
      <trkpt lat="48.17484" lon="-3.80731">
        <ele>33.783447265625</ele>
        <time>2012-04-19T12:00:26Z</time>
      </trkpt>
      <trkpt lat="48.17599" lon="-3.80718">
        <ele>35.7060546875</ele>
        <time>2012-04-19T12:00:54Z</time>
      </trkpt>
      <trkpt lat="48.17653" lon="-3.80717">
        <ele>37.628662109375</ele>
        <time>2012-04-19T12:01:08Z</time>
      </trkpt>
      <trkpt lat="48.17743" lon="-3.80724">
        <ele>37.148071289062</ele>
        <time>2012-04-19T12:01:30Z</time>
      </trkpt>
      <trkpt lat="48.17823" lon="-3.8073">
        <ele>37.148071289062</ele>
        <time>2012-04-19T12:01:50Z</time>
      </trkpt>
      <trkpt lat="48.17839" lon="-3.80731">
        <ele>36.186767578125</ele>
        <time>2012-04-19T12:01:54Z</time>
      </trkpt>
      <trkpt lat="48.1791" lon="-3.80719">
        <ele>37.148071289062</ele>
        <time>2012-04-19T12:02:12Z</time>
      </trkpt>
      <trkpt lat="48.18012" lon="-3.80699">
        <ele>36.186767578125</ele>
        <time>2012-04-19T12:02:37Z</time>
      </trkpt>
      <trkpt lat="48.18056" lon="-3.8069">
        <ele>39.070678710938</ele>
        <time>2012-04-19T12:02:49Z</time>
      </trkpt>
      <trkpt lat="48.18109" lon="-3.80684">
        <ele>37.148071289062</ele>
        <time>2012-04-19T12:03:03Z</time>
      </trkpt>
      <trkpt lat="48.18185" lon="-3.80681">
        <ele>36.66748046875</ele>
        <time>2012-04-19T12:03:22Z</time>
      </trkpt>
      <trkpt lat="48.18261" lon="-3.80684">
        <ele>35.7060546875</ele>
        <time>2012-04-19T12:03:41Z</time>
      </trkpt>
      <trkpt lat="48.18347" lon="-3.80703">
        <ele>33.783447265625</ele>
        <time>2012-04-19T12:04:04Z</time>
      </trkpt>
      <trkpt lat="48.18396" lon="-3.80755">
        <ele>32.341552734375</ele>
        <time>2012-04-19T12:04:19Z</time>
      </trkpt>
      <trkpt lat="48.18415" lon="-3.808">
        <ele>32.341552734375</ele>
        <time>2012-04-19T12:04:32Z</time>
      </trkpt>
      <trkpt lat="48.1844" lon="-3.80848">
        <ele>31.860717773438</ele>
        <time>2012-04-19T12:04:52Z</time>
      </trkpt>
      <trkpt lat="48.18461" lon="-3.80957">
        <ele>32.822265625</ele>
        <time>2012-04-19T12:05:13Z</time>
      </trkpt>
      <trkpt lat="48.18463" lon="-3.80997">
        <ele>33.302856445312</ele>
        <time>2012-04-19T12:05:27Z</time>
      </trkpt>
      <trkpt lat="48.18465" lon="-3.81035">
        <ele>35.7060546875</ele>
        <time>2012-04-19T12:05:42Z</time>
      </trkpt>
      <trkpt lat="48.18479" lon="-3.81041">
        <ele>35.7060546875</ele>
        <time>2012-04-19T12:05:46Z</time>
      </trkpt>
      <trkpt lat="48.18436" lon="-3.81054">
        <ele>34.26416015625</ele>
        <time>2012-04-19T12:06:02Z</time>
      </trkpt>
      <trkpt lat="48.18372" lon="-3.81034">
        <ele>35.225463867188</ele>
        <time>2012-04-19T12:06:16Z</time>
      </trkpt>
      <trkpt lat="48.18369" lon="-3.81041">
        <ele>35.7060546875</ele>
        <time>2012-04-19T12:06:18Z</time>
      </trkpt>
      <trkpt lat="48.18361" lon="-3.81044">
        <ele>36.66748046875</ele>
        <time>2012-04-19T12:06:30Z</time>
      </trkpt>
      <trkpt lat="48.18361" lon="-3.81042">
        <ele>36.186767578125</ele>
        <time>2012-04-19T12:06:46Z</time>
      </trkpt>
      <trkpt lat="48.18366" lon="-3.81049">
        <ele>36.66748046875</ele>
        <time>2012-04-19T12:06:51Z</time>
      </trkpt>
      <trkpt lat="48.18379" lon="-3.81136">
        <ele>37.148071289062</ele>
        <time>2012-04-19T12:07:09Z</time>
      </trkpt>
      <trkpt lat="48.18381" lon="-3.81175">
        <ele>35.7060546875</ele>
        <time>2012-04-19T12:07:16Z</time>
      </trkpt>
      <trkpt lat="48.18376" lon="-3.81171">
        <ele>36.186767578125</ele>
        <time>2012-04-19T12:07:21Z</time>
      </trkpt>
      <trkpt lat="48.18376" lon="-3.81157">
        <ele>36.186767578125</ele>
        <time>2012-04-19T12:07:25Z</time>
      </trkpt>
      <trkpt lat="48.18369" lon="-3.81095">
        <ele>39.070678710938</ele>
        <time>2012-04-19T12:07:40Z</time>
      </trkpt>
      <trkpt lat="48.18353" lon="-3.81035">
        <ele>40.993408203125</ele>
        <time>2012-04-19T12:07:56Z</time>
      </trkpt>
      <trkpt lat="48.18351" lon="-3.81031">
        <ele>41.473999023438</ele>
        <time>2012-04-19T12:08:02Z</time>
      </trkpt>
      <trkpt lat="48.18344" lon="-3.8101">
        <ele>44.838623046875</ele>
        <time>2012-04-19T12:08:16Z</time>
      </trkpt>
      <trkpt lat="48.18344" lon="-3.81003">
        <ele>44.838623046875</ele>
        <time>2012-04-19T12:08:21Z</time>
      </trkpt>
      <trkpt lat="48.18341" lon="-3.80996">
        <ele>44.838623046875</ele>
        <time>2012-04-19T12:08:39Z</time>
      </trkpt>
      <trkpt lat="48.18333" lon="-3.80995">
        <ele>45.799926757812</ele>
        <time>2012-04-19T12:09:11Z</time>
      </trkpt>
      <trkpt lat="48.18333" lon="-3.80991">
        <ele>46.280639648438</ele>
        <time>2012-04-19T12:09:21Z</time>
      </trkpt>
      <trkpt lat="48.18336" lon="-3.80996">
        <ele>45.319213867188</ele>
        <time>2012-04-19T12:09:39Z</time>
      </trkpt>
      <trkpt lat="48.18337" lon="-3.80996">
        <ele>44.838623046875</ele>
        <time>2012-04-19T12:11:13Z</time>
      </trkpt>
      <trkpt lat="48.18341" lon="-3.81012">
        <ele>42.916015625</ele>
        <time>2012-04-19T12:11:26Z</time>
      </trkpt>
      <trkpt lat="48.18345" lon="-3.81016">
        <ele>43.877319335938</ele>
        <time>2012-04-19T12:11:29Z</time>
      </trkpt>
      <trkpt lat="48.18351" lon="-3.81033">
        <ele>43.396606445312</ele>
        <time>2012-04-19T12:11:48Z</time>
      </trkpt>
      <trkpt lat="48.18353" lon="-3.81035">
        <ele>41.473999023438</ele>
        <time>2012-04-19T12:12:09Z</time>
      </trkpt>
      <trkpt lat="48.18355" lon="-3.81038">
        <ele>41.473999023438</ele>
        <time>2012-04-19T12:12:11Z</time>
      </trkpt>
      <trkpt lat="48.18356" lon="-3.81046">
        <ele>42.435424804688</ele>
        <time>2012-04-19T12:12:29Z</time>
      </trkpt>
      <trkpt lat="48.1836" lon="-3.81062">
        <ele>41.954711914062</ele>
        <time>2012-04-19T12:12:48Z</time>
      </trkpt>
      <trkpt lat="48.18378" lon="-3.81152">
        <ele>40.032104492188</ele>
        <time>2012-04-19T12:13:03Z</time>
      </trkpt>
      <trkpt lat="48.18376" lon="-3.81185">
        <ele>39.070678710938</ele>
        <time>2012-04-19T12:13:08Z</time>
      </trkpt>
      <trkpt lat="48.18374" lon="-3.81197">
        <ele>38.590087890625</ele>
        <time>2012-04-19T12:13:10Z</time>
      </trkpt>
      <trkpt lat="48.18359" lon="-3.81256">
        <ele>41.954711914062</ele>
        <time>2012-04-19T12:13:25Z</time>
      </trkpt>
      <trkpt lat="48.18356" lon="-3.8126">
        <ele>43.396606445312</ele>
        <time>2012-04-19T12:13:39Z</time>
      </trkpt>
      <trkpt lat="48.18354" lon="-3.81267">
        <ele>46.280639648438</ele>
        <time>2012-04-19T12:13:45Z</time>
      </trkpt>
      <trkpt lat="48.18349" lon="-3.81282">
        <ele>45.799926757812</ele>
        <time>2012-04-19T12:13:50Z</time>
      </trkpt>
      <trkpt lat="48.18341" lon="-3.81347">
        <ele>48.683959960938</ele>
        <time>2012-04-19T12:14:04Z</time>
      </trkpt>
      <trkpt lat="48.18325" lon="-3.81435">
        <ele>45.319213867188</ele>
        <time>2012-04-19T12:14:21Z</time>
      </trkpt>
      <trkpt lat="48.18304" lon="-3.81526">
        <ele>42.916015625</ele>
        <time>2012-04-19T12:14:37Z</time>
      </trkpt>
      <trkpt lat="48.18263" lon="-3.81594">
        <ele>42.916015625</ele>
        <time>2012-04-19T12:14:54Z</time>
      </trkpt>
      <trkpt lat="48.18219" lon="-3.81639">
        <ele>41.473999023438</ele>
        <time>2012-04-19T12:15:09Z</time>
      </trkpt>
      <trkpt lat="48.18176" lon="-3.8167">
        <ele>41.473999023438</ele>
        <time>2012-04-19T12:15:25Z</time>
      </trkpt>
      <trkpt lat="48.18153" lon="-3.81679">
        <ele>43.396606445312</ele>
        <time>2012-04-19T12:15:38Z</time>
      </trkpt>
      <trkpt lat="48.18153" lon="-3.8168">
        <ele>43.396606445312</ele>
        <time>2012-04-19T12:15:46Z</time>
      </trkpt>
      <trkpt lat="48.18172" lon="-3.81707">
        <ele>40.032104492188</ele>
        <time>2012-04-19T12:15:59Z</time>
      </trkpt>
      <trkpt lat="48.18175" lon="-3.81706">
        <ele>40.032104492188</ele>
        <time>2012-04-19T12:16:00Z</time>
      </trkpt>
      <trkpt lat="48.18184" lon="-3.81701">
        <ele>39.070678710938</ele>
        <time>2012-04-19T12:16:11Z</time>
      </trkpt>
      <trkpt lat="48.18188" lon="-3.81698">
        <ele>39.55126953125</ele>
        <time>2012-04-19T12:16:28Z</time>
      </trkpt>
      <trkpt lat="48.18188" lon="-3.81698">
        <ele>39.070678710938</ele>
        <time>2012-04-19T12:26:45Z</time>
      </trkpt>
    </trkseg>
  </trk>
</gpx>